Terminal Aerodrome Forecast
Issued by NWS

Home | Current Version | Previous Version | Text Only | Print | Product List | Glossary On
Versions: 1 2 3 4 5 6 7 8 9 10 11 12
777
FTAK31 PAJN 241128
TAFAWG
TAF
PAWG 241128Z 2412/2512 VRB04KT P6SM VCSH OVC030
      TEMPO 2412/2416 -SHRA SCT015 OVC030
     FM242100 30006KT P6SM BKN040 OVC050
     FM250900 VRB04KT P6SM SCT025 BKN035 OVC070
      AMD LTD TO CLD VIS AND WIND 2412/2415=

USA.gov is the U.S. government's official web portal to all federal, state and local government web resources and services.